"WATCHING THE WEATHER TO PROTECT LIFE AND PROPERTY"


THERE ARE CURRENTLY NO WATCHES NOR WARNINGS


Aviation
Satellite (InfraRed)


TNCA 140600Z 09013KT 9999 BKN017 29/25 Q1014 NOSIG
TNCB 140655Z AUTO 08012KT 9999 FEW016/// SCT031/// 28/25 Q1013
TNCC 140600Z 10010KT 9999 SCT017 29/26 Q1014 NOSIG=
TNCM 140700Z 03008KT 360V060 9999 FEW016 29/28 Q1018